TEJ079 SUMU-SBEG
Flight info
| Callsign | TEJ079 |
|---|---|
| Flight time | N/A |
| Altitude | 37000 |
| Route | VUKAS UM402 ISIPA |
| Aircraft | A35K/H-SDE2E3GHIJ3J4J5LM1ORWXY/LB1D1 |
Departure
| Time | 2026-04-22 18:34 |
|---|---|
| Airport | Carrasco General Cesáreo L. Berisso International Airport (SUMU) |
Arrival
| Time | N/A |
|---|---|
| Airport | Eduardo Gomes International Airport (SBEG) |
| Time | Latitude | Longitude | Altitude | Speed | Heading |
|---|---|---|---|---|---|
| 2026-04-22 18:20 | -34.83576 | -56.01728 | 100 ft | 0 kts | 143° |
| 2026-04-22 18:28 | -34.83563 | -56.01739 | 102 ft | 3 kts | 140° |
| 2026-04-22 18:29 | -34.83550 | -56.01758 | 100 ft | 3 kts | 104° |
| 2026-04-22 18:29 | -34.83549 | -56.01782 | 101 ft | 3 kts | 68° |
| 2026-04-22 18:29 | -34.83551 | -56.01791 | 100 ft | 0 kts | 54° |
| 2026-04-22 18:30 | -34.83549 | -56.01787 | 100 ft | 0 kts | 55° |
| 2026-04-22 18:31 | -34.83548 | -56.01785 | 99 ft | 1 kts | 54° |
| 2026-04-22 18:31 | -34.83514 | -56.01754 | 104 ft | 12 kts | 17° |
| 2026-04-22 18:31 | -34.83409 | -56.01799 | 104 ft | 21 kts | 327° |
| 2026-04-22 18:31 | -34.83304 | -56.01853 | 103 ft | 8 kts | 31° |
| 2026-04-22 18:32 | -34.83246 | -56.01767 | 105 ft | 19 kts | 53° |
| 2026-04-22 18:32 | -34.83141 | -56.01598 | 107 ft | 30 kts | 53° |
| 2026-04-22 18:32 | -34.82994 | -56.01356 | 111 ft | 40 kts | 53° |
| 2026-04-22 18:32 | -34.82859 | -56.01155 | 120 ft | 17 kts | 29° |
| 2026-04-22 18:33 | -34.82726 | -56.01193 | 116 ft | 24 kts | 289° |
| 2026-04-22 18:33 | -34.82825 | -56.01421 | 114 ft | 54 kts | 233° |
| 2026-04-22 18:33 | -34.83193 | -56.02025 | 102 ft | 122 kts | 233° |
| 2026-04-22 18:33 | -34.83810 | -56.03019 | 303 ft | 158 kts | 234° |
| 2026-04-22 18:34 | -34.84533 | -56.04046 | 894 ft | 164 kts | 235° |
| 2026-04-22 18:34 | -34.84928 | -56.05371 | 1349 ft | 179 kts | 264° |
| 2026-04-22 18:34 | -34.84581 | -56.06862 | 1607 ft | 198 kts | 304° |
| 2026-04-22 18:34 | -34.83342 | -56.07738 | 1758 ft | 224 kts | 347° |
| 2026-04-22 18:35 | -34.81754 | -56.07402 | 1989 ft | 247 kts | 28° |